sensor_id;sensor_type;location;lat;lon;timestamp;temperature;humidity
9901;DHT22;4989;48.772;9.154;2022-12-24T00:04:00;12.10;95.10
9901;DHT22;4989;48.772;9.154;2022-12-24T00:09:03;12.20;95.30
9901;DHT22;4989;48.772;9.154;2022-12-24T00:14:05;12.20;94.60
9901;DHT22;4989;48.772;9.154;2022-12-24T00:19:08;12.20;94.40
9901;DHT22;4989;48.772;9.154;2022-12-24T00:24:10;12.10;94.40
9901;DHT22;4989;48.772;9.154;2022-12-24T00:29:12;12.10;94.60
9901;DHT22;4989;48.772;9.154;2022-12-24T00:34:14;12.00;94.50
9901;DHT22;4989;48.772;9.154;2022-12-24T00:39:16;12.10;95.00
9901;DHT22;4989;48.772;9.154;2022-12-24T00:44:19;12.10;94.80
9901;DHT22;4989;48.772;9.154;2022-12-24T00:49:21;12.00;95.10
9901;DHT22;4989;48.772;9.154;2022-12-24T00:54:25;11.90;95.40
9901;DHT22;4989;48.772;9.154;2022-12-24T00:59:27;11.80;95.50
9901;DHT22;4989;48.772;9.154;2022-12-24T01:04:29;11.60;95.70
9901;DHT22;4989;48.772;9.154;2022-12-24T01:09:50;11.70;95.70
9901;DHT22;4989;48.772;9.154;2022-12-24T01:14:52;11.70;95.30
9901;DHT22;4989;48.772;9.154;2022-12-24T01:19:54;11.80;95.10
9901;DHT22;4989;48.772;9.154;2022-12-24T01:24:56;11.90;95.20
9901;DHT22;4989;48.772;9.154;2022-12-24T01:29:58;12.00;94.80
9901;DHT22;4989;48.772;9.154;2022-12-24T01:35:01;12.20;95.40
9901;DHT22;4989;48.772;9.154;2022-12-24T01:40:05;12.50;94.70
9901;DHT22;4989;48.772;9.154;2022-12-24T01:50:51;12.90;94.70
9901;DHT22;4989;48.772;9.154;2022-12-24T01:56:15;12.80;95.90
9901;DHT22;4989;48.772;9.154;2022-12-24T02:01:19;12.90;96.00
9901;DHT22;4989;48.772;9.154;2022-12-24T02:06:22;12.40;96.40
9901;DHT22;4989;48.772;9.154;2022-12-24T02:11:24;11.70;98.20
9901;DHT22;4989;48.772;9.154;2022-12-24T02:21:56;12.10;98.00
9901;DHT22;4989;48.772;9.154;2022-12-24T02:43:45;11.00;99.30
9901;DHT22;4989;48.772;9.154;2022-12-24T02:48:49;11.00;99.40
9901;DHT22;4989;48.772;9.154;2022-12-24T02:53:52;10.90;99.40
9901;DHT22;4989;48.772;9.154;2022-12-24T03:15:05;11.00;98.40
9901;DHT22;4989;48.772;9.154;2022-12-24T03:20:12;11.00;98.60
9901;DHT22;4989;48.772;9.154;2022-12-24T03:25:21;11.00;98.40
9901;DHT22;4989;48.772;9.154;2022-12-24T03:30:26;11.10;97.60
9901;DHT22;4989;48.772;9.154;2022-12-24T03:35:28;11.00;98.30
9901;DHT22;4989;48.772;9.154;2022-12-24T03:40:30;11.10;97.80
9901;DHT22;4989;48.772;9.154;2022-12-24T03:45:32;11.10;98.50
9901;DHT22;4989;48.772;9.154;2022-12-24T03:50:35;11.00;97.60
9901;DHT22;4989;48.772;9.154;2022-12-24T03:55:38;11.00;96.90
9901;DHT22;4989;48.772;9.154;2022-12-24T04:00:40;11.00;97.00
9901;DHT22;4989;48.772;9.154;2022-12-24T04:05:42;11.10;96.60
9901;DHT22;4989;48.772;9.154;2022-12-24T04:10:44;11.10;97.00
9901;DHT22;4989;48.772;9.154;2022-12-24T04:15:59;11.00;97.60
9901;DHT22;4989;48.772;9.154;2022-12-24T04:21:07;10.80;97.50
9901;DHT22;4989;48.772;9.154;2022-12-24T04:26:12;10.70;97.80
9901;DHT22;4989;48.772;9.154;2022-12-24T04:31:15;10.70;98.20
9901;DHT22;4989;48.772;9.154;2022-12-24T04:36:19;10.70;98.30
9901;DHT22;4989;48.772;9.154;2022-12-24T04:41:23;10.60;98.30
9901;DHT22;4989;48.772;9.154;2022-12-24T04:46:27;10.60;98.30
9901;DHT22;4989;48.772;9.154;2022-12-24T04:51:33;10.70;97.90
9901;DHT22;4989;48.772;9.154;2022-12-24T04:56:36;10.70;97.50
9901;DHT22;4989;48.772;9.154;2022-12-24T05:01:41;10.70;97.40
9901;DHT22;4989;48.772;9.154;2022-12-24T05:06:43;10.70;97.60
9901;DHT22;4989;48.772;9.154;2022-12-24T05:11:45;10.70;97.20
9901;DHT22;4989;48.772;9.154;2022-12-24T05:16:47;10.70;97.50
9901;DHT22;4989;48.772;9.154;2022-12-24T05:21:49;10.70;97.30
9901;DHT22;4989;48.772;9.154;2022-12-24T05:27:11;10.70;96.70
9901;DHT22;4989;48.772;9.154;2022-12-24T05:32:13;10.70;96.40
9901;DHT22;4989;48.772;9.154;2022-12-24T05:37:16;10.70;96.50
9901;DHT22;4989;48.772;9.154;2022-12-24T05:42:18;10.70;96.20
9901;DHT22;4989;48.772;9.154;2022-12-24T05:47:20;10.70;96.00
9901;DHT22;4989;48.772;9.154;2022-12-24T05:52:22;10.70;95.80
9901;DHT22;4989;48.772;9.154;2022-12-24T05:57:24;10.70;96.20
9901;DHT22;4989;48.772;9.154;2022-12-24T06:02:26;10.60;95.80
9901;DHT22;4989;48.772;9.154;2022-12-24T06:07:28;10.60;95.60
9901;DHT22;4989;48.772;9.154;2022-12-24T06:12:30;10.60;95.70
9901;DHT22;4989;48.772;9.154;2022-12-24T06:17:32;10.60;95.30
9901;DHT22;4989;48.772;9.154;2022-12-24T06:22:34;10.70;95.40
9901;DHT22;4989;48.772;9.154;2022-12-24T06:27:37;10.70;95.70
9901;DHT22;4989;48.772;9.154;2022-12-24T06:32:39;10.70;95.30
9901;DHT22;4989;48.772;9.154;2022-12-24T06:37:41;10.60;95.60
9901;DHT22;4989;48.772;9.154;2022-12-24T06:42:43;10.50;96.90
9901;DHT22;4989;48.772;9.154;2022-12-24T06:47:45;10.30;97.60
9901;DHT22;4989;48.772;9.154;2022-12-24T06:52:47;10.10;97.90
9901;DHT22;4989;48.772;9.154;2022-12-24T06:57:49;10.20;97.70
9901;DHT22;4989;48.772;9.154;2022-12-24T07:02:51;10.10;98.10
9901;DHT22;4989;48.772;9.154;2022-12-24T07:07:54;10.10;97.70
9901;DHT22;4989;48.772;9.154;2022-12-24T07:12:56;10.20;97.20
9901;DHT22;4989;48.772;9.154;2022-12-24T07:17:58;10.30;97.00
9901;DHT22;4989;48.772;9.154;2022-12-24T07:23:00;10.40;97.20
9901;DHT22;4989;48.772;9.154;2022-12-24T07:28:02;10.50;96.80
9901;DHT22;4989;48.772;9.154;2022-12-24T07:33:04;10.50;96.70
9901;DHT22;4989;48.772;9.154;2022-12-24T07:38:07;10.50;97.10
9901;DHT22;4989;48.772;9.154;2022-12-24T07:43:09;10.40;96.60
9901;DHT22;4989;48.772;9.154;2022-12-24T07:48:11;10.50;96.40
9901;DHT22;4989;48.772;9.154;2022-12-24T07:53:14;10.60;96.30
9901;DHT22;4989;48.772;9.154;2022-12-24T07:58:16;10.70;96.80
9901;DHT22;4989;48.772;9.154;2022-12-24T08:03:19;10.90;96.40
9901;DHT22;4989;48.772;9.154;2022-12-24T08:08:22;10.90;97.00
9901;DHT22;4989;48.772;9.154;2022-12-24T08:13:24;11.00;95.60
9901;DHT22;4989;48.772;9.154;2022-12-24T08:18:26;10.90;95.60
9901;DHT22;4989;48.772;9.154;2022-12-24T08:23:28;10.70;95.90
9901;DHT22;4989;48.772;9.154;2022-12-24T08:28:30;10.60;96.20
9901;DHT22;4989;48.772;9.154;2022-12-24T08:33:32;10.50;96.10
9901;DHT22;4989;48.772;9.154;2022-12-24T08:38:34;10.50;96.20
9901;DHT22;4989;48.772;9.154;2022-12-24T08:43:36;10.50;95.90
9901;DHT22;4989;48.772;9.154;2022-12-24T08:48:39;10.60;96.00
9901;DHT22;4989;48.772;9.154;2022-12-24T08:53:41;10.50;96.30
9901;DHT22;4989;48.772;9.154;2022-12-24T08:58:43;10.60;96.10
9901;DHT22;4989;48.772;9.154;2022-12-24T09:03:46;10.40;96.20
9901;DHT22;4989;48.772;9.154;2022-12-24T09:08:48;10.40;96.30
9901;DHT22;4989;48.772;9.154;2022-12-24T09:13:50;10.40;96.20
9901;DHT22;4989;48.772;9.154;2022-12-24T09:18:52;10.50;96.00
9901;DHT22;4989;48.772;9.154;2022-12-24T09:23:54;10.60;95.80
9901;DHT22;4989;48.772;9.154;2022-12-24T09:28:57;10.70;95.60
9901;DHT22;4989;48.772;9.154;2022-12-24T09:34:01;10.70;95.40
9901;DHT22;4989;48.772;9.154;2022-12-24T09:39:04;10.60;95.50
9901;DHT22;4989;48.772;9.154;2022-12-24T09:49:49;10.60;95.50
9901;DHT22;4989;48.772;9.154;2022-12-24T09:55:06;10.60;95.60
9901;DHT22;4989;48.772;9.154;2022-12-24T10:00:28;10.60;95.70
9901;DHT22;4989;48.772;9.154;2022-12-24T10:05:38;10.70;95.50
9901;DHT22;4989;48.772;9.154;2022-12-24T10:10:54;11.10;95.00
9901;DHT22;4989;48.772;9.154;2022-12-24T10:16:24;11.10;94.80
9901;DHT22;4989;48.772;9.154;2022-12-24T10:27:14;11.70;93.70
9901;DHT22;4989;48.772;9.154;2022-12-24T10:32:30;12.00;93.00
9901;DHT22;4989;48.772;9.154;2022-12-24T10:37:33;12.20;92.80
9901;DHT22;4989;48.772;9.154;2022-12-24T10:42:38;12.40;92.60
9901;DHT22;4989;48.772;9.154;2022-12-24T10:47:56;12.70;91.60
9901;DHT22;4989;48.772;9.154;2022-12-24T10:58:53;13.30;91.50
9901;DHT22;4989;48.772;9.154;2022-12-24T11:04:00;13.20;90.90
9901;DHT22;4989;48.772;9.154;2022-12-24T11:14:32;13.50;90.30
9901;DHT22;4989;48.772;9.154;2022-12-24T11:19:38;13.50;90.50
9901;DHT22;4989;48.772;9.154;2022-12-24T11:24:41;13.40;89.10
9901;DHT22;4989;48.772;9.154;2022-12-24T11:29:50;13.20;90.20
9901;DHT22;4989;48.772;9.154;2022-12-24T11:34:52;12.90;90.30
9901;DHT22;4989;48.772;9.154;2022-12-24T11:39:58;12.50;90.70
9901;DHT22;4989;48.772;9.154;2022-12-24T11:45:22;12.80;91.50
9901;DHT22;4989;48.772;9.154;2022-12-24T11:50:30;13.30;91.10
9901;DHT22;4989;48.772;9.154;2022-12-24T12:00:48;13.50;89.10
9901;DHT22;4989;48.772;9.154;2022-12-24T12:05:54;13.70;88.90
9901;DHT22;4989;48.772;9.154;2022-12-24T12:10:57;13.50;87.30
9901;DHT22;4989;48.772;9.154;2022-12-24T12:16:16;13.80;90.00
9901;DHT22;4989;48.772;9.154;2022-12-24T12:21:28;14.20;85.80
9901;DHT22;4989;48.772;9.154;2022-12-24T12:26:36;13.90;87.40
9901;DHT22;4989;48.772;9.154;2022-12-24T12:31:45;13.70;89.90
9901;DHT22;4989;48.772;9.154;2022-12-24T12:37:11;13.40;88.30
9901;DHT22;4989;48.772;9.154;2022-12-24T12:42:23;13.40;90.40
9901;DHT22;4989;48.772;9.154;2022-12-24T12:47:58;13.50;90.20
9901;DHT22;4989;48.772;9.154;2022-12-24T12:58:40;13.50;90.60
9901;DHT22;4989;48.772;9.154;2022-12-24T13:04:33;13.80;90.40
9901;DHT22;4989;48.772;9.154;2022-12-24T13:20:27;14.00;87.00
9901;DHT22;4989;48.772;9.154;2022-12-24T13:30:43;13.70;85.70
9901;DHT22;4989;48.772;9.154;2022-12-24T13:36:15;13.50;86.20
9901;DHT22;4989;48.772;9.154;2022-12-24T13:46:56;13.80;86.30
9901;DHT22;4989;48.772;9.154;2022-12-24T14:02:50;13.80;89.70
9901;DHT22;4989;48.772;9.154;2022-12-24T14:07:59;13.70;90.00
9901;DHT22;4989;48.772;9.154;2022-12-24T14:13:05;13.70;90.40
9901;DHT22;4989;48.772;9.154;2022-12-24T14:18:17;13.70;90.80
9901;DHT22;4989;48.772;9.154;2022-12-24T14:23:51;13.60;91.20
9901;DHT22;4989;48.772;9.154;2022-12-24T14:29:28;13.40;91.90
9901;DHT22;4989;48.772;9.154;2022-12-24T14:34:33;13.40;91.80
9901;DHT22;4989;48.772;9.154;2022-12-24T14:39:40;13.10;92.60
9901;DHT22;4989;48.772;9.154;2022-12-24T14:50:49;13.20;92.70
9901;DHT22;4989;48.772;9.154;2022-12-24T14:55:52;13.20;92.20
9901;DHT22;4989;48.772;9.154;2022-12-24T15:01:00;13.10;92.50
9901;DHT22;4989;48.772;9.154;2022-12-24T15:06:04;13.00;92.40
9901;DHT22;4989;48.772;9.154;2022-12-24T15:11:19;12.90;92.40
9901;DHT22;4989;48.772;9.154;2022-12-24T15:16:32;13.00;92.20
9901;DHT22;4989;48.772;9.154;2022-12-24T15:21:38;12.80;92.30
9901;DHT22;4989;48.772;9.154;2022-12-24T15:26:44;12.80;93.20
9901;DHT22;4989;48.772;9.154;2022-12-24T15:31:54;13.00;92.50
9901;DHT22;4989;48.772;9.154;2022-12-24T15:37:23;12.60;93.10
9901;DHT22;4989;48.772;9.154;2022-12-24T15:42:27;12.60;93.30
9901;DHT22;4989;48.772;9.154;2022-12-24T15:47:41;12.30;93.70
9901;DHT22;4989;48.772;9.154;2022-12-24T15:52:46;12.50;93.30
9901;DHT22;4989;48.772;9.154;2022-12-24T15:58:34;12.50;92.50
9901;DHT22;4989;48.772;9.154;2022-12-24T16:03:57;12.70;93.10
9901;DHT22;4989;48.772;9.154;2022-12-24T16:14:56;12.90;92.80
9901;DHT22;4989;48.772;9.154;2022-12-24T16:20:05;12.80;93.00
9901;DHT22;4989;48.772;9.154;2022-12-24T16:25:27;12.70;93.70
9901;DHT22;4989;48.772;9.154;2022-12-24T16:30:29;12.80;93.80
9901;DHT22;4989;48.772;9.154;2022-12-24T16:35:32;12.40;93.60
9901;DHT22;4989;48.772;9.154;2022-12-24T16:40:37;12.30;93.30
9901;DHT22;4989;48.772;9.154;2022-12-24T16:45:44;12.40;93.00
9901;DHT22;4989;48.772;9.154;2022-12-24T16:50:49;12.20;92.80
9901;DHT22;4989;48.772;9.154;2022-12-24T16:55:52;12.30;93.50
9901;DHT22;4989;48.772;9.154;2022-12-24T17:00:55;12.20;93.60
9901;DHT22;4989;48.772;9.154;2022-12-24T17:05:57;12.30;93.30
9901;DHT22;4989;48.772;9.154;2022-12-24T17:10:59;12.40;92.60
9901;DHT22;4989;48.772;9.154;2022-12-24T17:16:01;12.30;91.80
9901;DHT22;4989;48.772;9.154;2022-12-24T17:21:04;12.70;92.20
9901;DHT22;4989;48.772;9.154;2022-12-24T17:26:09;12.90;91.70
9901;DHT22;4989;48.772;9.154;2022-12-24T17:31:15;12.40;92.00
9901;DHT22;4989;48.772;9.154;2022-12-24T17:36:18;12.10;92.30
9901;DHT22;4989;48.772;9.154;2022-12-24T17:41:21;12.10;92.50
9901;DHT22;4989;48.772;9.154;2022-12-24T17:46:23;12.00;92.40
9901;DHT22;4989;48.772;9.154;2022-12-24T17:51:28;12.00;92.30
9901;DHT22;4989;48.772;9.154;2022-12-24T17:56:34;12.10;92.00
9901;DHT22;4989;48.772;9.154;2022-12-24T18:01:36;12.00;92.10
9901;DHT22;4989;48.772;9.154;2022-12-24T18:06:39;11.90;92.20
9901;DHT22;4989;48.772;9.154;2022-12-24T18:11:49;11.80;92.20
9901;DHT22;4989;48.772;9.154;2022-12-24T18:16:51;11.60;92.50
9901;DHT22;4989;48.772;9.154;2022-12-24T18:21:54;11.50;92.70
9901;DHT22;4989;48.772;9.154;2022-12-24T18:26:56;11.40;93.00
9901;DHT22;4989;48.772;9.154;2022-12-24T18:31:58;11.40;93.40
9901;DHT22;4989;48.772;9.154;2022-12-24T18:37:00;11.40;93.70
9901;DHT22;4989;48.772;9.154;2022-12-24T18:42:03;11.30;94.00
9901;DHT22;4989;48.772;9.154;2022-12-24T18:47:05;11.20;94.50
9901;DHT22;4989;48.772;9.154;2022-12-24T18:52:09;11.20;94.70
9901;DHT22;4989;48.772;9.154;2022-12-24T18:57:12;11.10;95.00
9901;DHT22;4989;48.772;9.154;2022-12-24T19:02:14;11.10;95.20
9901;DHT22;4989;48.772;9.154;2022-12-24T19:07:16;11.10;95.20
9901;DHT22;4989;48.772;9.154;2022-12-24T19:12:18;11.00;95.30
9901;DHT22;4989;48.772;9.154;2022-12-24T19:17:21;11.00;95.40
9901;DHT22;4989;48.772;9.154;2022-12-24T19:22:25;11.00;95.50
9901;DHT22;4989;48.772;9.154;2022-12-24T19:27:28;11.00;95.60
9901;DHT22;4989;48.772;9.154;2022-12-24T19:32:30;10.90;95.70
9901;DHT22;4989;48.772;9.154;2022-12-24T19:37:32;10.90;95.80
9901;DHT22;4989;48.772;9.154;2022-12-24T19:42:34;10.80;95.90
9901;DHT22;4989;48.772;9.154;2022-12-24T19:47:37;10.80;96.10
9901;DHT22;4989;48.772;9.154;2022-12-24T19:52:39;10.70;96.00
9901;DHT22;4989;48.772;9.154;2022-12-24T19:57:41;10.60;96.10
9901;DHT22;4989;48.772;9.154;2022-12-24T20:02:44;10.70;96.10
9901;DHT22;4989;48.772;9.154;2022-12-24T20:07:46;10.80;96.00
9901;DHT22;4989;48.772;9.154;2022-12-24T20:12:48;10.80;95.90
9901;DHT22;4989;48.772;9.154;2022-12-24T20:17:50;10.80;95.90
9901;DHT22;4989;48.772;9.154;2022-12-24T20:22:54;10.90;95.70
9901;DHT22;4989;48.772;9.154;2022-12-24T20:27:56;10.90;95.80
9901;DHT22;4989;48.772;9.154;2022-12-24T20:32:58;10.90;95.70
9901;DHT22;4989;48.772;9.154;2022-12-24T20:38:00;10.90;95.90
9901;DHT22;4989;48.772;9.154;2022-12-24T20:43:02;10.80;96.10
9901;DHT22;4989;48.772;9.154;2022-12-24T20:48:05;10.80;96.20
9901;DHT22;4989;48.772;9.154;2022-12-24T20:53:08;10.70;96.80
9901;DHT22;4989;48.772;9.154;2022-12-24T20:58:13;10.60;96.90
9901;DHT22;4989;48.772;9.154;2022-12-24T21:03:18;10.50;97.40
9901;DHT22;4989;48.772;9.154;2022-12-24T21:08:21;10.60;97.40
9901;DHT22;4989;48.772;9.154;2022-12-24T21:13:23;10.60;97.70
9901;DHT22;4989;48.772;9.154;2022-12-24T21:18:25;10.60;97.60
9901;DHT22;4989;48.772;9.154;2022-12-24T21:23:27;10.50;97.90
9901;DHT22;4989;48.772;9.154;2022-12-24T21:28:30;10.40;98.30
9901;DHT22;4989;48.772;9.154;2022-12-24T21:33:32;10.30;98.40
9901;DHT22;4989;48.772;9.154;2022-12-24T21:38:40;10.30;98.40
9901;DHT22;4989;48.772;9.154;2022-12-24T21:43:42;10.40;98.40
9901;DHT22;4989;48.772;9.154;2022-12-24T21:48:45;10.40;98.30
9901;DHT22;4989;48.772;9.154;2022-12-24T21:54:06;10.40;98.20
9901;DHT22;4989;48.772;9.154;2022-12-24T21:59:24;10.40;98.20
9901;DHT22;4989;48.772;9.154;2022-12-24T22:04:29;10.40;98.50
9901;DHT22;4989;48.772;9.154;2022-12-24T22:09:32;10.40;98.60
9901;DHT22;4989;48.772;9.154;2022-12-24T22:14:53;10.30;98.70
9901;DHT22;4989;48.772;9.154;2022-12-24T22:19:55;10.30;98.90
9901;DHT22;4989;48.772;9.154;2022-12-24T22:24:58;10.30;99.10
9901;DHT22;4989;48.772;9.154;2022-12-24T22:30:00;10.10;99.30
9901;DHT22;4989;48.772;9.154;2022-12-24T22:35:02;10.10;99.40
9901;DHT22;4989;48.772;9.154;2022-12-24T22:40:05;10.10;99.40
9901;DHT22;4989;48.772;9.154;2022-12-24T22:45:10;10.00;99.40
9901;DHT22;4989;48.772;9.154;2022-12-24T22:50:21;9.80;99.40
9901;DHT22;4989;48.772;9.154;2022-12-24T22:55:24;9.80;99.40
9901;DHT22;4989;48.772;9.154;2022-12-24T23:00:55;9.80;99.20
9901;DHT22;4989;48.772;9.154;2022-12-24T23:05:59;9.90;99.10
9901;DHT22;4989;48.772;9.154;2022-12-24T23:11:11;9.90;99.20
9901;DHT22;4989;48.772;9.154;2022-12-24T23:16:15;9.90;99.20
9901;DHT22;4989;48.772;9.154;2022-12-24T23:21:17;9.90;99.20
9901;DHT22;4989;48.772;9.154;2022-12-24T23:26:20;10.00;99.10
9901;DHT22;4989;48.772;9.154;2022-12-24T23:31:23;9.90;99.20
9901;DHT22;4989;48.772;9.154;2022-12-24T23:36:26;10.00;98.90
9901;DHT22;4989;48.772;9.154;2022-12-24T23:41:28;10.20;98.50
9901;DHT22;4989;48.772;9.154;2022-12-24T23:46:30;10.10;98.50
9901;DHT22;4989;48.772;9.154;2022-12-24T23:51:33;10.00;98.70
9901;DHT22;4989;48.772;9.154;2022-12-24T23:56:35;10.10;98.60
